Time;durP1;ratioP1;P1;durP2;ratioP2;P2;SDS_P1;SDS_P2;PMS_P1;PMS_P2;Temp;Humidity;BMP_temperature;BMP_pressure;BME280_temperature;BME280_humidity;BME280_pressure;Samples;Min_cycle;Max_cycle;Signal;HPM_P1;HPM_P2
2021/12/07 00:02:09;;;;;;;3.80;2.20;;;;;;;14.29;84.21;101145.63;5062049;28;20071;-63
2021/12/07 00:04:38;;;;;;;3.75;2.50;;;;;;;14.34;84.29;101142.75;5048855;28;20041;-64
2021/12/07 00:07:05;;;;;;;3.22;1.63;;;;;;;14.35;84.21;101149.22;5064354;28;20075;-67
2021/12/07 00:09:32;;;;;;;3.10;1.88;;;;;;;14.39;84.22;101145.53;5070915;28;20135;-70
2021/12/07 00:12:03;;;;;;;4.23;2.00;;;;;;;14.45;83.87;101143.53;5075537;28;20068;-72
2021/12/07 00:14:39;;;;;;;3.20;1.67;;;;;;;14.41;84.25;101142.44;5054867;28;20133;-62
2021/12/07 00:17:08;;;;;;;1.83;1.38;;;;;;;14.30;84.22;101119.19;5056069;28;20144;-65
2021/12/07 00:19:35;;;;;;;2.43;1.47;;;;;;;14.38;84.39;101138.22;5063432;28;20430;-68
2021/12/07 00:22:05;;;;;;;2.00;1.20;;;;;;;14.38;84.09;101126.16;5060223;28;20385;-69
2021/12/07 00:24:37;;;;;;;1.87;1.37;;;;;;;14.38;84.03;101123.34;5061520;28;20132;-70
2021/12/07 00:27:04;;;;;;;3.10;1.85;;;;;;;14.38;84.10;101115.75;5060969;28;20635;-69
2021/12/07 00:29:31;;;;;;;2.28;1.45;;;;;;;14.38;83.96;101112.94;5072981;28;20083;-69
2021/12/07 00:32:50;;;;;;;2.47;1.33;;;;;;;14.41;84.22;101106.75;5053692;28;20048;-69
2021/12/07 00:37:35;;;;;;;1.87;1.50;;;;;;;14.45;83.93;101105.00;5031616;28;20477;-71
2021/12/07 00:40:06;;;;;;;4.13;1.95;;;;;;;14.38;83.91;101093.28;5047096;28;20048;-70
2021/12/07 00:42:33;;;;;;;4.10;1.00;;;;;;;14.51;83.88;101102.22;5043183;28;20128;-68
2021/12/07 00:45:01;;;;;;;2.40;1.10;;;;;;;14.53;83.93;101094.31;5050556;28;20148;-69
2021/12/07 00:47:28;;;;;;;2.00;1.20;;;;;;;14.54;83.94;101088.41;5047075;28;20045;-69
2021/12/07 00:49:55;;;;;;;2.20;1.30;;;;;;;14.56;83.97;101088.09;5045775;28;20118;-69
2021/12/07 00:52:22;;;;;;;1.67;0.95;;;;;;;14.57;83.77;101081.38;5036291;28;20057;-69
2021/12/07 00:54:49;;;;;;;1.20;0.77;;;;;;;14.55;83.80;101080.81;5022574;28;20065;-68
2021/12/07 00:57:16;;;;;;;2.00;1.20;;;;;;;14.47;83.85;101062.59;5033878;28;20088;-74
2021/12/07 00:59:43;;;;;;;1.88;0.88;;;;;;;14.57;84.05;101072.94;5044053;28;20080;-75
2021/12/07 01:02:10;;;;;;;0.90;0.70;;;;;;;14.57;83.78;101068.16;5054328;28;20560;-75
2021/12/07 01:04:38;;;;;;;3.28;1.38;;;;;;;14.56;83.89;101060.00;5045835;28;20049;-75
2021/12/07 01:07:12;;;;;;;2.40;0.73;;;;;;;14.56;84.15;101054.38;5048988;28;20052;-75
2021/12/07 01:24:39;;;;;;;1.20;0.80;;;;;;;14.46;83.91;101033.66;5047642;28;20716;-75
2021/12/07 01:26:13;;;;;;;0.50;0.50;;;;;;;14.75;84.13;101023.56;5044329;28;20045;-63
2021/12/07 01:28:44;;;;;;;0.73;0.60;;;;;;;14.81;83.79;101026.03;5037543;28;20500;-67
2021/12/07 01:36:34;;;;;;;1.23;0.70;;;;;;;14.82;83.74;100993.13;5044518;28;20047;-67
2021/12/07 01:59:32;;;;;;;0.22;0.22;;;;;;;14.83;83.46;100964.69;5055111;28;20107;-62
2021/12/07 02:00:56;;;;;;;2.58;0.32;;;;;;;15.01;83.84;100984.72;5063238;28;20080;-62
2021/12/07 02:03:25;;;;;;;1.42;0.30;;;;;;;15.02;83.83;100989.22;5056825;28;20045;-63
2021/12/07 02:05:53;;;;;;;3.55;0.40;;;;;;;15.04;83.56;100986.94;5060247;28;20098;-62
2021/12/07 02:08:21;;;;;;;0.38;0.30;;;;;;;15.00;83.64;100971.81;5069649;28;20083;-61
2021/12/07 02:10:51;;;;;;;3.15;0.30;;;;;;;15.07;83.94;100980.72;5063605;28;20396;-61
2021/12/07 02:16:09;;;;;;;;;;;;;;;15.13;83.56;100979.53;5026768;28;20105;-61
2021/12/07 02:18:36;;;;;;;0.70;0.32;;;;;;;15.06;83.45;100973.44;5071600;28;19975;-61
2021/12/07 02:21:13;;;;;;;0.30;0.30;;;;;;;15.04;83.84;100970.94;5061220;28;20103;-62
2021/12/07 02:23:41;;;;;;;1.63;0.50;;;;;;;15.06;83.88;100979.06;5055111;28;20492;-62
2021/12/07 02:26:08;;;;;;;0.73;0.45;;;;;;;15.07;83.86;100980.72;5064391;28;20704;-63
2021/12/07 02:28:38;;;;;;;13.43;0.57;;;;;;;15.10;83.48;100986.56;5064203;28;20085;-62
2021/12/07 02:31:08;;;;;;;8.88;0.80;;;;;;;15.06;83.53;100981.88;5053025;28;20637;-63
2021/12/07 02:33:36;;;;;;;17.73;1.40;;;;;;;14.99;83.58;100972.94;5056356;28;20184;-64
2021/12/07 02:36:04;;;;;;;22.27;0.98;;;;;;;15.02;83.65;100973.19;5062756;28;20127;-63
2021/12/07 02:38:31;;;;;;;1.02;0.50;;;;;;;15.01;83.49;100977.16;5061199;28;20050;-62
2021/12/07 02:40:58;;;;;;;1.85;0.30;;;;;;;14.95;83.85;100977.50;5058413;28;20045;-64
2021/12/07 02:43:26;;;;;;;3.33;0.40;;;;;;;14.95;83.61;100977.50;5057761;28;20083;-63
2021/12/07 02:45:53;;;;;;;0.65;0.30;;;;;;;14.91;83.30;100972.47;5064236;28;20068;-63
2021/12/07 02:48:21;;;;;;;0.90;0.45;;;;;;;14.92;83.85;100974.16;5069856;28;20507;-63
2021/12/07 02:50:50;;;;;;;0.25;0.25;;;;;;;14.93;83.54;100960.91;5053345;28;20076;-64
2021/12/07 02:53:24;;;;;;;0.75;0.38;;;;;;;14.93;83.47;100970.19;5065654;28;20083;-65
2021/12/07 02:55:53;;;;;;;0.38;0.28;;;;;;;14.96;83.27;100965.94;5043146;28;20596;-66
2021/12/07 02:58:21;;;;;;;0.20;0.20;;;;;;;14.88;83.20;100955.38;5058211;28;20136;-66
2021/12/07 03:01:00;;;;;;;0.45;0.25;;;;;;;14.85;83.48;100961.59;5067778;28;20091;-66
2021/12/07 03:03:30;;;;;;;4.13;0.45;;;;;;;14.79;83.62;100949.56;5069070;28;20040;-66
2021/12/07 03:06:14;;;;;;;0.88;0.50;;;;;;;14.86;83.65;100963.25;5056998;28;20051;-66
2021/12/07 03:09:11;;;;;;;6.35;1.30;;;;;;;14.78;83.71;100950.69;5047956;28;20076;-66
2021/12/07 03:28:10;;;;;;;44.47;2.78;;;;;;;14.82;83.54;100940.53;5062274;28;20047;-66
2021/12/07 03:30:37;;;;;;;128.65;5.13;;;;;;;14.73;83.78;100925.44;5057558;28;20135;-66
2021/12/07 03:33:05;;;;;;;47.65;2.30;;;;;;;14.84;83.59;100937.44;5076767;28;20082;-65
2021/12/07 03:35:32;;;;;;;23.45;3.10;;;;;;;14.82;83.61;100934.06;5052937;28;20132;-65
2021/12/07 03:38:00;;;;;;;21.48;2.20;;;;;;;14.90;83.54;100937.03;5057746;28;20510;-62
2021/12/07 03:40:27;;;;;;;9.95;1.58;;;;;;;14.88;83.74;100932.88;5058205;28;20075;-64
2021/12/07 03:42:54;;;;;;;4.43;2.00;;;;;;;14.80;83.56;100920.34;5057726;28;20088;-65
2021/12/07 03:45:20;;;;;;;19.63;2.08;;;;;;;14.91;83.62;100938.75;5052113;28;20588;-67
2021/12/07 03:47:47;;;;;;;46.10;3.05;;;;;;;14.86;83.77;100929.53;5067470;28;20076;-67
2021/12/07 03:50:14;;;;;;;2.88;1.45;;;;;;;14.87;83.77;100934.84;5053681;28;20069;-68
2021/12/07 03:52:41;;;;;;;56.70;3.53;;;;;;;14.82;83.65;100928.44;5056543;28;20054;-67
2021/12/07 03:55:08;;;;;;;85.25;3.92;;;;;;;14.86;83.65;100935.97;5055569;28;20076;-65
2021/12/07 03:57:36;;;;;;;63.95;4.22;;;;;;;14.84;83.89;100931.81;5067177;28;20138;-64
2021/12/07 04:00:07;;;;;;;23.55;1.85;;;;;;;14.84;83.60;100935.47;5060551;28;20489;-64
2021/12/07 04:02:39;;;;;;;61.97;4.68;;;;;;;14.81;83.54;100929.59;5047576;28;20132;-64
2021/12/07 04:05:12;;;;;;;28.48;1.70;;;;;;;14.84;83.38;100929.00;5069108;28;20119;-64
2021/12/07 04:07:39;;;;;;;23.75;1.40;;;;;;;14.74;83.77;100926.31;5058890;28;20083;-64
2021/12/07 04:10:08;;;;;;;50.92;3.60;;;;;;;14.78;83.51;100922.59;5060111;28;20048;-67
2021/12/07 04:12:36;;;;;;;19.90;3.25;;;;;;;14.81;83.79;100927.63;5069581;28;20117;-67
2021/12/07 04:15:06;;;;;;;30.05;3.60;;;;;;;14.82;83.45;100923.66;5062428;28;20420;-65
2021/12/07 04:17:32;;;;;;;;;;;;;;;14.88;83.57;100927.25;5065793;28;20079;-64
2021/12/07 04:19:59;;;;;;;10.88;1.95;;;;;;;14.80;83.44;100916.66;5054543;28;20289;-64
2021/12/07 04:22:26;;;;;;;28.95;3.05;;;;;;;14.83;83.51;100925.31;5064904;28;20091;-66
2021/12/07 04:24:53;;;;;;;29.90;3.13;;;;;;;14.79;83.86;100927.06;5065183;28;20072;-65
2021/12/07 04:27:25;;;;;;;17.70;2.80;;;;;;;14.83;83.79;100922.50;5068929;28;20385;-65
2021/12/07 04:29:52;;;;;;;9.45;1.88;;;;;;;14.80;83.85;100917.50;5066920;28;20148;-66
2021/12/07 04:32:19;;;;;;;2.80;1.35;;;;;;;14.76;83.63;100921.22;5054691;28;20167;-65
2021/12/07 04:34:45;;;;;;;9.20;2.10;;;;;;;14.81;83.82;100922.00;5061996;28;20583;-65
2021/12/07 04:37:12;;;;;;;4.88;2.08;;;;;;;14.82;83.47;100929.28;5061494;28;20084;-65
2021/12/07 04:39:39;;;;;;;7.32;1.52;;;;;;;14.79;83.52;100923.41;5039200;28;20136;-65
2021/12/07 04:42:06;;;;;;;11.30;2.22;;;;;;;14.60;83.80;100892.47;5048902;28;20131;-66
2021/12/07 04:44:40;;;;;;;6.32;2.67;;;;;;;14.74;83.55;100910.28;5064854;28;20044;-65
2021/12/07 04:47:16;;;;;;;7.20;1.83;;;;;;;14.80;83.66;100906.28;5067901;28;20045;-65
2021/12/07 04:50:00;;;;;;;13.13;1.80;;;;;;;14.83;83.69;100916.06;5046665;28;20077;-65
2021/12/07 04:57:58;;;;;;;3.97;2.35;;;;;;;14.82;83.49;100911.56;5063054;28;20139;-64
2021/12/07 05:00:27;;;;;;;8.25;2.03;;;;;;;14.83;83.69;100896.38;5046099;28;20067;-64
2021/12/07 05:02:58;;;;;;;9.63;1.95;;;;;;;14.83;83.40;100908.44;5068995;28;20075;-65
2021/12/07 05:05:32;;;;;;;14.40;2.22;;;;;;;14.87;83.59;100915.19;5068778;28;20502;-67
2021/12/07 05:08:07;;;;;;;9.18;2.30;;;;;;;14.72;83.35;100881.63;5052374;28;20136;-69
2021/12/07 05:11:00;;;;;;;13.88;3.15;;;;;;;14.91;83.35;100913.44;5054174;28;20137;-67
2021/12/07 05:13:30;;;;;;;12.05;2.38;;;;;;;14.84;83.26;100895.25;5056621;28;20076;-67
2021/12/07 05:24:23;;;;;;;5.07;1.70;;;;;;;14.92;83.12;100912.28;4990875;28;20082;-63
2021/12/07 05:37:57;;;;;;;4.45;1.88;;;;;;;14.97;83.40;100908.56;5226513;23;20070;-61
2021/12/07 05:40:34;;;;;;;12.13;2.38;;;;;;;14.89;83.81;100896.00;4928859;29;20135;-63
2021/12/07 05:43:03;;;;;;;12.93;1.88;;;;;;;14.93;83.39;100894.25;4931846;29;20056;-63
2021/12/07 05:45:36;;;;;;;17.27;2.00;;;;;;;14.89;83.60;100889.56;4930108;29;20546;-65
2021/12/07 05:48:05;;;;;;;14.45;1.85;;;;;;;15.01;83.54;100897.53;4930937;29;20526;-65
2021/12/07 05:50:35;;;;;;;11.68;1.65;;;;;;;15.05;83.21;100898.63;4932871;29;20079;-63
2021/12/07 05:53:04;;;;;;;5.25;1.50;;;;;;;15.06;83.48;100883.41;4933098;29;20078;-63
2021/12/07 05:55:32;;;;;;;21.00;2.30;;;;;;;15.09;83.17;100889.28;4927664;29;20048;-68
2021/12/07 05:57:59;;;;;;;10.73;2.03;;;;;;;15.11;83.01;100900.22;4930931;29;20126;-72
2021/12/07 06:00:28;;;;;;;9.77;2.92;;;;;;;15.11;83.39;100891.78;4931004;29;20127;-69
2021/12/07 06:03:04;;;;;;;9.25;1.30;;;;;;;15.07;83.40;100880.28;4929475;29;20081;-67
2021/12/07 06:05:33;;;;;;;11.55;2.25;;;;;;;15.06;83.12;100878.63;4923966;29;20048;-63
2021/12/07 06:08:01;;;;;;;8.35;2.08;;;;;;;15.05;83.06;100874.16;4931024;29;20130;-63
2021/12/07 06:10:28;;;;;;;15.10;2.08;;;;;;;15.06;83.01;100881.44;4927403;29;20047;-63
2021/12/07 06:12:56;;;;;;;7.25;2.17;;;;;;;15.14;83.13;100892.03;4926027;29;20080;-61
2021/12/07 06:15:24;;;;;;;10.13;2.15;;;;;;;15.12;83.15;100887.84;4926514;29;20141;-64
2021/12/07 06:17:51;;;;;;;8.63;1.40;;;;;;;15.11;83.34;100875.75;4927736;29;20146;-65
2021/12/07 06:20:21;;;;;;;3.65;2.03;;;;;;;15.06;83.34;100906.75;4931378;29;20060;-61
2021/12/07 06:23:10;;;;;;;8.23;1.85;;;;;;;15.00;83.22;100879.84;4929989;29;20407;-60
2021/12/07 06:25:37;;;;;;;8.57;2.38;;;;;;;15.00;83.29;100884.63;4928520;29;20087;-65
2021/12/07 06:28:04;;;;;;;12.05;2.15;;;;;;;15.02;83.25;100883.19;4930482;29;20091;-63
2021/12/07 06:30:31;;;;;;;10.80;1.85;;;;;;;15.03;83.18;100875.59;4929126;29;20127;-68
2021/12/07 06:32:58;;;;;;;6.60;1.40;;;;;;;14.91;82.82;100861.97;4931927;29;20079;-60
2021/12/07 06:35:25;;;;;;;13.00;1.95;;;;;;;15.03;83.05;100876.41;4930939;29;20048;-64
2021/12/07 06:37:52;;;;;;;11.10;1.77;;;;;;;15.08;83.13;100875.53;4921296;29;20091;-66
2021/12/07 06:40:22;;;;;;;13.95;2.03;;;;;;;15.00;82.98;100862.13;4922647;29;20401;-66
2021/12/07 06:42:49;;;;;;;10.52;2.05;;;;;;;15.06;82.92;100864.56;4926490;29;20491;-65
2021/12/07 06:45:16;;;;;;;7.30;2.10;;;;;;;15.09;82.82;100865.94;4925662;29;20126;-65
2021/12/07 06:47:43;;;;;;;9.93;2.05;;;;;;;15.10;82.78;100874.06;4926654;29;20168;-65
2021/12/07 06:50:11;;;;;;;12.55;1.48;;;;;;;15.09;82.69;100865.94;4925243;29;20118;-66
2021/12/07 06:52:38;;;;;;;9.35;1.95;;;;;;;14.88;82.96;100826.84;4905454;29;20056;-64
2021/12/07 06:55:06;;;;;;;15.82;1.75;;;;;;;15.09;82.73;100857.50;4921725;29;20070;-65
2021/12/07 06:57:33;;;;;;;8.50;1.67;;;;;;;14.89;82.82;100828.53;4919224;29;20732;-64
2021/12/07 07:00:01;;;;;;;3.78;1.02;;;;;;;15.03;83.10;100841.84;4924483;29;20075;-65
2021/12/07 07:02:28;;;;;;;11.05;1.67;;;;;;;14.91;83.29;100828.25;4919954;29;20056;-66
2021/12/07 07:04:55;;;;;;;9.30;1.83;;;;;;;15.04;83.17;100854.75;4927909;29;20412;-63
2021/12/07 07:07:22;;;;;;;11.57;1.65;;;;;;;15.05;83.08;100842.38;4926916;29;20083;-64
2021/12/07 07:09:50;;;;;;;11.88;2.20;;;;;;;15.04;83.29;100838.75;4935153;29;20067;-65
2021/12/07 07:12:17;;;;;;;6.20;1.67;;;;;;;14.98;83.17;100830.69;4925303;29;20079;-66
2021/12/07 07:14:45;;;;;;;7.85;1.27;;;;;;;15.00;83.45;100834.00;4927913;29;20051;-65
2021/12/07 07:17:13;;;;;;;8.52;1.63;;;;;;;15.02;82.78;100842.97;4931268;29;20175;-66
2021/12/07 07:19:43;;;;;;;5.78;0.70;;;;;;;14.90;82.91;100830.19;4931057;29;20406;-66
2021/12/07 07:22:10;;;;;;;6.20;2.28;;;;;;;14.93;82.93;100840.84;4935621;29;20126;-66
2021/12/07 07:24:37;;;;;;;8.70;1.75;;;;;;;14.99;82.86;100846.41;4934979;29;20420;-66
2021/12/07 07:27:05;;;;;;;11.85;2.20;;;;;;;14.90;82.62;100823.72;4936271;29;20128;-66
2021/12/07 07:29:31;;;;;;;4.40;1.23;;;;;;;14.99;83.00;100847.22;4933238;29;20084;-65
2021/12/07 07:31:58;;;;;;;10.85;1.88;;;;;;;14.95;83.12;100836.91;4935016;29;20048;-66
2021/12/07 07:34:26;;;;;;;10.32;1.98;;;;;;;14.85;82.74;100821.84;4933938;29;20087;-65
2021/12/07 07:36:53;;;;;;;12.30;2.78;;;;;;;14.95;82.96;100831.28;4920604;29;20063;-66
2021/12/07 07:39:20;;;;;;;11.15;1.70;;;;;;;14.86;83.09;100829.13;4922604;29;20146;-66
2021/12/07 07:41:47;;;;;;;14.45;1.83;;;;;;;14.95;82.96;100842.53;4935201;29;20051;-66
2021/12/07 07:44:14;;;;;;;7.78;1.45;;;;;;;14.92;82.67;100827.09;4934336;29;20124;-66
2021/12/07 07:46:41;;;;;;;6.30;1.48;;;;;;;14.86;82.96;100823.50;4925971;29;20044;-66
2021/12/07 07:49:08;;;;;;;21.08;2.42;;;;;;;14.97;83.07;100823.34;4924842;29;20058;-66
2021/12/07 07:51:35;;;;;;;9.95;1.98;;;;;;;14.90;83.34;100824.56;4918951;29;20107;-66
2021/12/07 07:54:04;;;;;;;16.88;2.10;;;;;;;14.84;83.10;100814.56;4928592;29;20082;-65
2021/12/07 07:56:31;;;;;;;13.02;2.85;;;;;;;14.73;82.79;100773.66;4929888;29;20143;-66
2021/12/07 07:58:58;;;;;;;17.85;2.20;;;;;;;15.02;83.00;100815.69;4928062;29;20102;-66
2021/12/07 08:01:29;;;;;;;17.35;2.83;;;;;;;15.02;83.00;100817.66;4928999;29;20586;-67
2021/12/07 08:04:00;;;;;;;17.05;2.00;;;;;;;15.05;83.24;100822.69;4928269;29;20059;-66
2021/12/07 08:06:27;;;;;;;7.53;1.77;;;;;;;15.06;83.14;100827.16;4928320;29;20047;-62
2021/12/07 08:08:55;;;;;;;3.60;1.75;;;;;;;14.96;83.34;100810.44;4933917;29;20126;-61
2021/12/07 08:11:22;;;;;;;10.38;1.95;;;;;;;15.09;83.30;100820.94;4925403;29;20163;-61
2021/12/07 08:13:54;;;;;;;10.50;2.20;;;;;;;15.05;83.39;100820.72;4931188;29;20052;-61
2021/12/07 08:16:20;;;;;;;9.07;2.42;;;;;;;15.02;83.03;100818.50;4947576;29;20075;-62
2021/12/07 08:18:50;;;;;;;15.00;2.05;;;;;;;15.07;83.14;100811.97;4931310;29;20360;-62
2021/12/07 08:21:18;;;;;;;13.57;1.63;;;;;;;15.04;83.30;100821.00;4935933;29;20048;-61
2021/12/07 08:23:45;;;;;;;17.85;2.50;;;;;;;15.10;83.02;100816.97;4933585;29;20048;-62
2021/12/07 08:26:18;;;;;;;15.85;3.08;;;;;;;15.01;83.27;100801.91;4943788;29;20582;-62
2021/12/07 08:28:50;;;;;;;14.30;2.33;;;;;;;15.08;83.21;100819.28;4930662;29;20047;-61
2021/12/07 08:31:17;;;;;;;15.07;1.98;;;;;;;15.10;83.06;100815.00;4932846;29;20460;-62
2021/12/07 08:33:44;;;;;;;9.50;2.28;;;;;;;15.08;82.96;100808.84;4931310;29;20071;-62
2021/12/07 08:36:11;;;;;;;15.60;2.35;;;;;;;15.07;83.32;100811.97;4933733;29;20485;-62
2021/12/07 08:38:39;;;;;;;10.95;2.58;;;;;;;15.09;83.24;100799.28;4933978;29;20562;-60
2021/12/07 08:41:06;;;;;;;6.38;1.75;;;;;;;15.06;83.32;100787.78;4933072;29;20110;-61
2021/12/07 08:43:35;;;;;;;6.15;1.40;;;;;;;15.12;83.35;100792.19;4930984;29;20106;-61
2021/12/07 08:46:05;;;;;;;5.00;1.83;;;;;;;15.09;83.32;100776.75;4929915;29;20068;-60
2021/12/07 08:48:34;;;;;;;7.28;1.38;;;;;;;15.09;83.03;100796.44;4932890;29;20043;-61
2021/12/07 08:51:03;;;;;;;10.40;2.10;;;;;;;15.14;82.92;100795.53;4929436;29;20083;-61
2021/12/07 08:53:31;;;;;;;8.00;1.90;;;;;;;15.09;83.30;100792.81;4923852;29;20354;-61
2021/12/07 09:01:32;;;;;;;8.95;1.40;;;;;;;15.08;82.85;100785.53;4928171;29;20490;-61
2021/12/07 09:04:01;;;;;;;8.77;1.45;;;;;;;15.06;82.94;100797.06;4923152;29;20123;-60
2021/12/07 09:06:29;;;;;;;6.82;2.63;;;;;;;15.03;83.14;100777.97;4933548;29;20078;-61
2021/12/07 09:08:56;;;;;;;2.88;1.52;;;;;;;15.02;83.00;100775.50;4933673;29;20423;-61
2021/12/07 09:11:24;;;;;;;4.30;1.25;;;;;;;15.01;82.77;100774.66;4927493;29;20066;-63
2021/12/07 09:13:51;;;;;;;4.95;0.85;;;;;;;14.99;82.87;100767.66;4930731;29;20179;-61
2021/12/07 09:16:20;;;;;;;13.80;2.42;;;;;;;14.97;82.68;100767.13;4929695;29;20937;-63
2021/12/07 09:18:48;;;;;;;9.02;1.40;;;;;;;14.95;82.93;100769.41;4929987;29;20507;-61
2021/12/07 09:21:16;;;;;;;2.53;1.30;;;;;;;14.95;82.90;100769.41;4929781;29;20135;-62
2021/12/07 09:23:44;;;;;;;1.25;0.88;;;;;;;15.00;82.75;100766.50;4930238;29;20060;-62
2021/12/07 09:26:11;;;;;;;5.20;0.90;;;;;;;14.97;83.00;100770.75;4930522;29;20455;-62
2021/12/07 09:28:41;;;;;;;8.75;1.60;;;;;;;15.03;82.96;100761.09;4924274;29;20545;-61
2021/12/07 09:31:09;;;;;;;8.13;1.88;;;;;;;15.13;83.06;100760.94;4924445;29;20122;-61
2021/12/07 09:33:36;;;;;;;8.55;2.38;;;;;;;15.10;82.92;100772.81;4936607;29;20491;-61
2021/12/07 09:36:06;;;;;;;10.15;2.25;;;;;;;15.09;82.91;100770.31;4932134;28;20052;-61
2021/12/07 09:38:34;;;;;;;7.43;1.52;;;;;;;14.91;82.51;100750.34;4925925;29;20060;-61
2021/12/07 09:41:04;;;;;;;7.65;1.70;;;;;;;14.93;82.85;100759.28;4931814;29;20054;-60
2021/12/07 09:43:31;;;;;;;13.25;2.33;;;;;;;15.01;82.78;100770.97;4932449;29;20126;-61
2021/12/07 09:45:59;;;;;;;1.90;1.15;;;;;;;15.06;82.93;100760.50;4925870;29;20043;-61
2021/12/07 09:48:27;;;;;;;3.97;1.42;;;;;;;15.05;82.80;100769.25;4924345;29;20052;-62
2021/12/07 09:50:55;;;;;;;5.72;1.35;;;;;;;15.08;82.42;100768.66;4926128;29;20078;-63
2021/12/07 09:53:24;;;;;;;13.73;1.77;;;;;;;15.00;82.49;100755.25;4924768;29;20071;-62
2021/12/07 09:55:58;;;;;;;4.50;1.00;;;;;;;14.98;82.74;100754.75;4926368;29;20586;-62
2021/12/07 09:58:25;;;;;;;5.25;1.83;;;;;;;15.02;82.54;100761.44;4927116;29;20135;-60
2021/12/07 10:00:52;;;;;;;3.55;1.40;;;;;;;15.02;82.55;100759.44;4923572;29;20064;-59
2021/12/07 10:03:21;;;;;;;4.50;1.30;;;;;;;15.07;82.47;100762.16;4928392;29;20047;-59
2021/12/07 10:05:48;;;;;;;7.68;1.67;;;;;;;15.16;82.24;100765.13;4924573;29;20055;-60
2021/12/07 10:08:18;;;;;;;7.35;1.38;;;;;;;15.10;82.59;100761.56;4924418;29;20555;-60
2021/12/07 10:10:49;;;;;;;5.95;1.45;;;;;;;15.11;82.46;100751.13;4926158;29;20084;-59
2021/12/07 10:13:16;;;;;;;6.43;1.10;;;;;;;15.18;82.43;100757.22;4931508;29;20071;-59
2021/12/07 10:15:44;;;;;;;7.50;2.05;;;;;;;15.21;82.40;100748.16;4930824;29;20130;-58
2021/12/07 10:18:18;;;;;;;3.55;0.98;;;;;;;15.16;82.66;100739.81;4927324;29;20183;-60
2021/12/07 10:21:10;;;;;;;10.07;1.23;;;;;;;14.96;82.39;100715.66;4924030;29;20060;-59
2021/12/07 10:23:55;;;;;;;8.48;1.30;;;;;;;15.02;82.64;100722.06;4926005;29;20500;-60
2021/12/07 10:26:25;;;;;;;5.13;1.63;;;;;;;15.16;82.56;100729.38;4928261;29;20085;-59
2021/12/07 10:29:12;;;;;;;9.98;1.50;;;;;;;15.27;82.45;100721.59;4927572;29;20110;-60
2021/12/07 10:31:43;;;;;;;4.00;1.05;;;;;;;15.30;82.55;100737.88;4928601;29;20079;-59
2021/12/07 10:34:13;;;;;;;4.50;1.48;;;;;;;15.33;82.67;100728.81;4924324;29;20071;-61
2021/12/07 10:36:47;;;;;;;7.40;1.77;;;;;;;15.41;82.15;100732.91;4924924;29;20130;-60
2021/12/07 10:39:23;;;;;;;3.25;1.05;;;;;;;15.38;82.15;100727.88;4930873;29;20134;-60
2021/12/07 10:41:52;;;;;;;12.10;1.38;;;;;;;15.31;82.37;100736.72;4933771;29;20139;-59
2021/12/07 10:44:28;;;;;;;7.30;1.20;;;;;;;15.19;82.76;100721.50;4930709;29;20460;-59
2021/12/07 10:47:23;;;;;;;7.82;1.13;;;;;;;15.21;82.34;100728.44;4935023;29;20079;-59
2021/12/07 10:49:51;;;;;;;12.35;1.55;;;;;;;15.30;82.21;100729.44;4931245;29;20119;-59
2021/12/07 10:52:29;;;;;;;12.40;1.58;;;;;;;15.30;82.47;100723.81;4934060;29;20139;-60
2021/12/07 10:54:58;;;;;;;2.63;1.42;;;;;;;15.18;82.58;100720.66;4931947;29;20072;-59
2021/12/07 10:57:30;;;;;;;2.70;2.03;;;;;;;15.14;82.41;100720.44;4932974;29;20420;-60
2021/12/07 11:00:07;;;;;;;12.23;1.42;;;;;;;15.18;82.27;100726.28;4933765;29;20526;-59
2021/12/07 11:02:37;;;;;;;3.60;1.27;;;;;;;15.21;82.30;100714.38;4934123;29;20139;-59
2021/12/07 11:05:09;;;;;;;;;;;;;;;15.29;82.65;100726.94;4932046;29;20565;-59
2021/12/07 11:07:36;;;;;;;6.40;1.30;;;;;;;15.43;82.01;100719.38;4928494;29;20021;-59
2021/12/07 11:10:18;;;;;;;7.60;1.52;;;;;;;15.46;82.43;100696.22;4932257;29;20060;-59
2021/12/07 11:13:13;;;;;;;3.60;1.63;;;;;;;15.50;82.12;100697.28;4936322;29;20123;-60
2021/12/07 11:15:52;;;;;;;6.78;0.98;;;;;;;15.31;82.26;100660.75;4934297;29;20136;-60
2021/12/07 11:18:24;;;;;;;10.70;1.83;;;;;;;15.44;82.08;100681.63;4933933;29;20134;-61
2021/12/07 11:20:53;;;;;;;14.93;2.55;;;;;;;15.47;82.09;100680.19;4930116;29;20043;-60
2021/12/07 11:23:28;;;;;;;13.20;2.13;;;;;;;15.38;82.15;100666.84;4927946;29;20067;-60
2021/12/07 11:31:45;;;;;;;7.90;2.15;;;;;;;15.45;81.92;100634.63;4929680;29;20067;-61
2021/12/07 11:34:16;;;;;;;7.05;1.58;;;;;;;15.39;81.91;100657.25;4946223;28;20044;-60
2021/12/07 11:36:54;;;;;;;11.23;2.83;;;;;;;15.44;81.88;100635.78;4928959;29;20048;-60
2021/12/07 11:39:31;;;;;;;3.40;1.08;;;;;;;15.28;82.05;100619.19;4928749;29;20139;-59
2021/12/07 11:42:29;;;;;;;7.90;2.20;;;;;;;15.34;81.85;100632.00;4924736;29;20139;-58
2021/12/07 11:45:15;;;;;;;8.75;1.92;;;;;;;15.44;81.68;100630.97;4929799;29;20075;-59
2021/12/07 11:47:46;;;;;;;7.32;1.58;;;;;;;15.35;81.89;100610.31;4928840;29;20210;-59
2021/12/07 11:50:16;;;;;;;10.52;2.10;;;;;;;15.38;81.79;100598.44;4930031;29;20067;-61
2021/12/07 11:52:44;;;;;;;4.65;1.50;;;;;;;15.27;82.13;100600.63;4934676;29;20052;-60
2021/12/07 11:55:11;;;;;;;8.57;2.45;;;;;;;15.26;81.64;100584.06;4919459;29;20102;-60
2021/12/07 11:57:39;;;;;;;12.50;1.73;;;;;;;15.29;81.79;100589.91;4926299;29;21047;-60
2021/12/07 12:00:11;;;;;;;10.27;2.30;;;;;;;15.31;81.75;100581.97;4932724;29;20149;-61
2021/12/07 12:02:39;;;;;;;10.77;1.95;;;;;;;15.19;81.76;100578.84;4927376;29;20083;-62
2021/12/07 12:05:07;;;;;;;14.32;2.70;;;;;;;15.34;81.94;100574.91;4913043;29;20078;-63
2021/12/07 12:07:34;;;;;;;6.60;1.10;;;;;;;15.30;82.11;100573.84;4927818;29;20150;-61
2021/12/07 12:10:01;;;;;;;6.93;1.70;;;;;;;15.20;81.64;100551.56;4926598;29;20150;-60
2021/12/07 12:12:46;;;;;;;5.53;2.10;;;;;;;15.31;82.04;100567.91;4929007;29;20139;-62
2021/12/07 12:15:58;;;;;;;22.00;2.13;;;;;;;15.34;81.66;100556.03;4932046;29;20110;-63
2021/12/07 12:18:36;;;;;;;6.88;1.88;;;;;;;15.28;81.50;100546.03;4888763;29;20044;-62
2021/12/07 12:21:32;;;;;;;11.75;2.15;;;;;;;15.22;81.91;100530.41;4933973;29;20044;-63
2021/12/07 12:24:07;;;;;;;4.07;1.98;;;;;;;15.27;81.69;100541.53;4933230;29;20102;-61
2021/12/07 12:26:35;;;;;;;7.55;2.13;;;;;;;15.24;81.80;100553.41;4931108;29;20102;-62
2021/12/07 12:29:19;;;;;;;10.20;2.00;;;;;;;15.16;81.89;100559.78;4924118;29;20071;-60
2021/12/07 12:31:50;;;;;;;9.05;1.85;;;;;;;15.12;81.89;100539.06;4928658;29;20075;-62
2021/12/07 12:34:22;;;;;;;5.53;1.77;;;;;;;15.08;82.11;100509.88;4925830;29;20130;-60
2021/12/07 12:37:06;;;;;;;11.43;2.50;;;;;;;15.18;81.92;100501.25;4930608;29;20080;-60
2021/12/07 12:39:46;;;;;;;6.95;1.35;;;;;;;15.08;81.99;100490.19;4929040;29;20063;-61
2021/12/07 12:42:25;;;;;;;8.65;2.05;;;;;;;15.04;82.50;100491.94;4928543;29;20354;-61
2021/12/07 12:45:23;;;;;;;8.43;3.40;;;;;;;14.91;82.62;100471.97;4925971;29;20154;-61
2021/12/07 12:48:10;;;;;;;13.10;2.22;;;;;;;14.96;82.50;100462.59;4926772;29;20150;-61
2021/12/07 12:50:43;;;;;;;9.95;1.95;;;;;;;14.91;82.62;100465.50;4925402;29;20134;-61
2021/12/07 12:53:15;;;;;;;5.40;1.95;;;;;;;14.91;82.58;100454.25;4929234;29;20419;-63
2021/12/07 12:55:49;;;;;;;8.00;2.05;;;;;;;14.87;82.53;100444.75;4932869;29;20090;-60
2021/12/07 12:58:42;;;;;;;3.67;1.50;;;;;;;14.73;82.90;100447.56;4930579;29;20475;-60
2021/12/07 13:01:27;;;;;;;16.45;2.08;;;;;;;14.71;82.91;100449.88;4930366;29;20039;-61
2021/12/07 13:03:57;;;;;;;5.78;1.60;;;;;;;14.65;83.00;100428.63;4926995;29;20605;-66
2021/12/07 13:06:24;;;;;;;11.38;2.42;;;;;;;14.55;83.54;100431.63;4933356;29;20051;-64
2021/12/07 13:09:10;;;;;;;7.45;1.25;;;;;;;14.55;83.25;100421.22;4932567;29;20118;-65
2021/12/07 13:11:39;;;;;;;6.28;1.55;;;;;;;14.58;83.58;100445.06;4927342;29;20135;-65
2021/12/07 13:14:12;;;;;;;2.25;1.42;;;;;;;14.51;83.44;100411.75;4929560;29;20158;-60
2021/12/07 13:17:02;;;;;;;4.68;1.55;;;;;;;14.52;83.79;100396.56;4928149;29;20461;-63
2021/12/07 13:19:30;;;;;;;3.03;0.90;;;;;;;14.44;83.32;100389.66;4924042;29;20079;-65